EW0352 Weather Reports


time (UTC)temp
C
wind
direction
speed
KPH
gust
KPH
rain 1hr
cm
rain 24hr
cm
rain mn
cm
humidity
%
barometer
mb
20240304055646 3 233 4.8 9.7 0.00 0.00 0.00 65 1010.4
20240304055146 3 248 6.4 9.7 0.00 0.00 0.00 65 1010.5
20240304054644 4 235 4.8 12.9 0.00 0.00 0.00 65 1010.6
20240304053145 4 228 4.8 11.3 0.00 0.00 0.00 66 1009.9
20240304052646 4 244 3.2 11.3 0.00 0.00 0.00 66 1009.9
20240304052147 4 253 3.2 12.9 0.00 0.00 0.00 66 1009.6
20240304051645 4 216 3.2 4.8 0.00 0.00 0.00 66 1009.7
20240304051145 4 212 3.2 8.0 0.00 0.00 0.00 66 1009.5
20240304050645 5 239 4.8 4.8 0.00 0.00 0.00 67 1009.5
20240304050145 5 243 3.2 8.0 0.00 0.00 0.00 67 1009.5
20240304045645 5 230 3.2 11.3 0.00 0.00 0.00 67 1009.3
20240304045145 5 259 3.2 12.9 0.00 0.00 0.00 68 1009.4
20240304044645 5 238 6.4 11.3 0.00 0.00 0.00 68 1009.5
20240304043645 5 231 4.8 8.0 0.00 0.00 0.00 69 1009.2
20240304043145 5 235 3.2 8.0 0.00 0.00 0.00 69 1008.9
20240304042145 5 248 3.2 4.8 0.00 0.00 0.00 69 1008.4
20240304041145 5 235 4.8 11.3 0.00 0.00 0.00 69 1008.6
20240304040645 5 235 4.8 11.3 0.00 0.00 0.00 69 1008.6
20240304040145 5 236 4.8 4.8 0.00 0.00 0.00 68 1008.1
20240304035645 5 213 1.6 4.8 0.00 0.00 0.00 68 1007.5
20240304034645 6 242 3.2 11.3 0.00 0.00 0.00 69 1007.3
20240304033645 6 256 4.8 16.1 0.00 0.00 0.00 70 1007.2
20240304033145 6 223 8.0 12.9 0.00 0.00 0.00 71 1007.2
20240304032646 6 238 4.8 14.5 0.00 0.00 0.00 71 1007.1
20240304032146 6 250 3.2 8.0 0.00 0.00 0.00 71 1007.2
20240304031645 6 252 3.2 16.1 0.00 0.00 0.00 71 1007.2
20240304031145 6 238 3.2 8.0 0.00 0.00 0.00 71 1007.2
20240304030646 6 264 4.8 8.0 0.00 0.00 0.00 71 1007.1
20240304030145 6 219 3.2 8.0 0.00 0.00 0.00 71 1007.0
20240304025645 6 207 4.8 8.0 0.00 0.00 0.00 70 1006.8
20240304025146 6 248 3.2 4.8 0.00 0.00 0.00 70 1006.8
20240304024645 6 271 3.2 4.8 0.00 0.00 0.00 70 1006.7
20240304024145 6 243 4.8 11.3 0.00 0.00 0.00 69 1006.7
20240304023645 6 246 4.8 11.3 0.00 0.00 0.00 69 1006.6
20240304023145 6 232 4.8 9.7 0.00 0.00 0.00 69 1006.5
20240304022645 6 230 4.8 9.7 0.00 0.00 0.00 68 1006.5
20240304022145 6 254 4.8 12.9 0.00 0.00 0.00 68 1006.4
20240304021645 6 259 8.0 14.5 0.00 0.00 0.00 67 1006.2
20240304021145 6 233 9.7 16.1 0.00 0.00 0.00 67 1006.0
20240304020645 6 258 8.0 16.1 0.00 0.00 0.00 67 1005.9
20240304015146 7 263 11.3 25.7 0.00 0.00 0.00 67 1005.4
20240304014645 7 268 14.5 25.7 0.00 0.00 0.00 66 1005.2
20240304014145 7 254 9.7 25.7 0.00 0.00 0.00 66 1005.2
20240304013645 7 276 8.0 32.2 0.00 0.00 0.00 66 1005.0
20240304013145 7 276 20.9 38.6 0.00 0.00 0.00 65 1004.8
20240304012645 7 256 14.5 27.4 0.00 0.00 0.00 65 1004.7
20240304012146 7 260 16.1 32.2 0.00 0.00 0.00 65 1004.6
20240304011145 8 255 20.9 35.4 0.00 0.00 0.00 64 1004.3
20240304010646 8 269 22.5 45.1 0.00 0.00 0.00 64 1004.0
20240304010145 8 262 16.1 27.4 0.00 0.00 0.00 66 1003.8
20240304005645 8 260 16.1 32.2 0.00 0.00 0.00 66 1003.3
20240304005145 8 260 19.3 33.8 0.00 0.00 0.00 66 1002.8
20240304004645 8 255 12.9 32.2 0.00 0.00 0.00 67 1002.6
20240304004145 8 247 11.3 32.2 0.00 0.00 0.00 68 1002.7
20240304003645 8 249 12.9 24.1 0.00 0.00 0.00 68 1002.3
20240304003146 8 248 9.7 33.8 0.00 0.00 0.00 69 1002.0
20240304002646 8 250 11.3 27.4 0.00 0.00 0.00 69 1001.7
20240304002146 8 256 14.5 24.1 0.00 0.00 0.00 69 1001.5
20240304001646 8 259 22.5 40.2 0.00 0.00 0.00 69 1001.3
20240304001146 9 262 17.7 29.0 0.00 0.00 0.00 69 1000.9
20240304000646 9 260 16.1 35.4 0.00 0.00 0.00 68 1000.8
20240304000146 9 245 19.3 33.8 0.00 0.00 0.00 68 1000.6
20240303235646 10 248 22.5 46.7 0.00 0.00 0.00 67 1000.3
20240303235145 10 255 16.1 32.2 0.00 0.00 0.00 67 999.9
20240303234646 10 262 16.1 37.0 0.00 0.00 0.00 67 999.4
20240303234146 11 245 16.1 33.8 0.00 0.00 0.00 66 999.2
20240303233646 11 243 17.7 32.2 0.00 0.00 0.00 66 998.7
20240303233147 11 256 22.5 35.4 0.00 0.00 0.00 65 998.5
20240303232646 12 260 19.3 49.9 0.00 0.00 0.00 65 998.3
20240303232146 12 244 11.3 24.1 0.00 0.00 0.00 64 997.9
20240303231646 12 241 14.5 24.1 0.00 0.00 0.00 64 997.4
20240303231145 12 252 12.9 24.1 0.00 0.00 0.00 63 997.2
20240303230646 12 242 14.5 25.7 0.00 0.00 0.00 62 996.8
20240303230145 13 232 19.3 32.2 0.00 0.00 0.00 61 996.5
20240303225145 13 246 9.7 20.9 0.00 0.00 0.00 59 995.8
20240303224645 14 248 9.7 32.2 0.00 0.00 0.00 58 995.8
20240303224146 15 265 12.9 35.4 0.00 0.00 0.00 56 995.6
20240303223646 15 262 11.3 27.4 0.00 0.00 0.00 54 995.2
20240303223146 16 237 9.7 29.0 0.00 0.00 0.00 53 995.0
20240303222646 16 249 19.3 32.2 0.00 0.00 0.00 51 994.8
20240303222146 17 265 14.5 25.7 0.00 0.00 0.00 49 994.5
20240303221647 17 253 19.3 32.2 0.00 0.00 0.00 47 994.2
20240303220646 18 252 20.9 33.8 0.00 0.00 0.00 41 993.8
20240303220147 19 260 19.3 33.8 0.00 0.00 0.00 38 993.6
20240303215646 20 237 16.1 29.0 0.00 0.00 0.00 35 993.3
20240303214646 20 220 14.5 32.2 0.00 0.00 0.00 32 992.9
20240303214146 21 241 17.7 45.1 0.00 0.00 0.00 32 992.7
20240303213646 21 235 17.7 32.2 0.00 0.00 0.00 30 992.4
20240303213146 22 241 19.3 35.4 0.00 0.00 0.00 29 992.2
20240303212646 22 245 14.5 38.6 0.00 0.00 0.00 30 992.0
20240303212146 22 218 20.9 64.4 0.00 0.00 0.00 31 991.7
20240303211646 22 207 14.5 40.2 0.00 0.00 0.00 37 991.6
20240303211146 22 186 14.5 41.8 0.00 0.00 0.00 38 991.3
20240303210645 22 184 14.5 33.8 0.00 0.00 0.00 37 991.3
20240303210146 22 170 22.5 41.8 0.00 0.00 0.00 38 991.3
20240303205646 22 197 25.7 45.1 0.00 0.00 0.00 41 991.1
20240303205146 21 173 14.5 25.7 0.00 0.00 0.00 44 991.1
20240303204646 21 183 17.7 38.6 0.00 0.00 0.00 45 991.1
20240303203646 21 135 11.3 37.0 0.00 0.00 0.00 47 991.1
20240303203146 21 165 12.9 40.2 0.00 0.00 0.00 48 991.2
20240303202646 21 131 8.0 16.1 0.00 0.00 0.00 49 991.2
20240303202146 20 124 8.0 20.9 0.00 0.00 0.00 50 991.4
20240303201646 20 132 9.7 20.9 0.00 0.00 0.00 52 991.5
20240303201146 20 154 9.7 22.5 0.00 0.00 0.00 53 991.7
20240303200646 20 137 9.7 14.5 0.00 0.00 0.00 55 991.7
20240303200146 20 133 9.7 20.9 0.00 0.00 0.00 56 991.9
20240303195646 20 130 9.7 20.9 0.00 0.00 0.00 56 991.9
20240303195146 19 130 17.7 32.2 0.00 0.00 0.00 56 992.0
20240303194647 19 137 16.1 27.4 0.00 0.00 0.00 56 992.1
20240303194146 19 122 12.9 27.4 0.00 0.00 0.00 56 992.3
20240303193646 19 150 12.9 35.4 0.00 0.00 0.00 56 992.5
20240303192146 18 137 11.3 24.1 0.00 0.00 0.00 58 992.7
20240303191646 18 130 11.3 22.5 0.00 0.00 0.00 58 992.8
20240303191147 18 141 17.7 33.8 0.00 0.00 0.00 57 992.9
20240303190646 18 145 14.5 25.7 0.00 0.00 0.00 57 993.0
20240303185646 18 141 9.7 20.9 0.00 0.00 0.00 59 993.1
20240303185146 18 141 14.5 37.0 0.00 0.00 0.00 59 993.3
20240303184646 18 144 11.3 27.4 0.00 0.00 0.00 60 993.5
20240303184146 18 135 12.9 33.8 0.00 0.00 0.00 60 993.5
20240303183646 18 165 9.7 29.0 0.00 0.00 0.00 60 993.6
20240303183146 17 138 14.5 22.5 0.00 0.00 0.00 60 993.7
20240303182646 17 138 14.5 27.4 0.00 0.00 0.00 60 993.8
20240303182146 17 140 12.9 41.8 0.00 0.00 0.00 62 993.8
20240303181646 17 124 14.5 33.8 0.00 0.00 0.00 64 994.0
20240303181146 17 132 14.5 29.0 0.00 0.00 0.00 65 994.0
20240303180646 16 122 12.9 29.0 0.00 0.00 0.00 66 994.0
20240303180146 16 133 19.3 29.0 0.00 0.00 0.00 66 994.1
20240303175646 16 140 6.4 19.3 0.00 0.00 0.00 67 994.3
20240303175146 16 121 9.7 20.9 0.00 0.00 0.00 68 994.5
20240303174146 16 134 11.3 20.9 0.00 0.00 0.00 68 994.6
20240303173646 16 123 14.5 25.7 0.00 0.00 0.00 68 994.7
20240303172146 16 137 12.9 19.3 0.00 0.00 0.00 68 995.0
20240303171646 15 139 16.1 32.2 0.00 0.00 0.00 68 995.0
20240303171147 15 134 14.5 25.7 0.00 0.00 0.00 69 995.2
20240303170646 15 151 9.7 24.1 0.00 0.00 0.00 70 995.3
20240303170146 15 124 14.5 33.8 0.00 0.00 0.00 70 995.5
20240303165148 15 128 12.9 22.5 0.00 0.00 0.00 71 995.9
20240303164146 14 125 14.5 24.1 0.00 0.00 0.00 73 996.0
20240303163646 13 139 16.1 32.2 0.00 0.00 0.00 72 996.2
20240303162646 13 135 11.3 32.2 0.00 0.00 0.00 73 996.5
20240303162146 13 137 14.5 24.1 0.00 0.00 0.00 73 996.6
20240303161646 13 133 16.1 24.1 0.00 0.00 0.00 73 996.7
20240303161147 13 136 9.7 19.3 0.00 0.00 0.00 74 996.8
20240303160146 12 125 17.7 32.2 0.00 0.00 0.00 76 996.7
20240303155647 12 119 17.7 29.0 0.00 0.00 0.00 76 996.8
20240303154647 12 141 16.1 24.1 0.00 0.00 0.00 77 996.9
20240303154146 11 141 9.7 19.3 0.00 0.00 0.00 78 996.9
20240303153647 11 112 9.7 22.5 0.00 0.00 0.00 78 997.0
20240303153147 11 121 11.3 22.5 0.00 0.00 0.00 78 997.0
20240303152647 11 121 12.9 24.1 0.00 0.00 0.00 79 997.2
20240303152146 11 116 11.3 24.1 0.00 0.00 0.00 79 997.5
20240303151646 10 119 9.7 22.5 0.00 0.00 0.00 80 997.6
20240303151147 10 123 11.3 19.3 0.00 0.00 0.00 80 997.7
20240303150646 10 102 11.3 19.3 0.00 0.00 0.00 80 997.8
20240303150146 10 114 14.5 22.5 0.00 0.00 0.00 81 997.9
20240303145646 10 103 14.5 22.5 0.00 0.00 0.00 80 998.0
20240303145147 10 123 12.9 29.0 0.00 0.00 0.00 81 998.0
20240303144647 9 104 9.7 16.1 0.00 0.00 0.00 81 998.2
20240303144147 9 128 14.5 22.5 0.00 0.00 0.00 81 998.3
20240303143646 9 91 11.3 19.3 0.00 0.00 0.00 81 998.3
20240303143147 9 114 9.7 19.3 0.00 0.00 0.00 82 998.5
20240303142646 8 94 11.3 19.3 0.00 0.00 0.00 82 998.6
20240303142146 8 110 9.7 20.9 0.00 0.00 0.00 82 998.6
20240303141647 8 105 9.7 19.3 0.00 0.00 0.00 82 998.7
20240303141146 8 121 9.7 19.3 0.00 0.00 0.00 83 998.8
20240303135647 8 107 8.0 16.1 0.00 0.00 0.00 83 999.1
20240303135147 8 109 11.3 19.3 0.00 0.00 0.00 83 999.1
20240303134646 8 97 9.7 16.1 0.00 0.00 0.00 83 999.2
20240303134147 8 119 11.3 22.5 0.00 0.00 0.00 83 999.2
20240303133647 7 99 8.0 14.5 0.00 0.00 0.00 83 999.3
20240303133147 7 111 11.3 19.3 0.00 0.00 0.00 83 999.4
20240303132147 7 114 11.3 24.1 0.00 0.00 0.00 83 999.6
20240303131646 7 121 17.7 22.5 0.00 0.00 0.00 83 999.6
20240303131146 7 111 14.5 22.5 0.00 0.00 0.00 83 999.5
20240303130647 7 114 9.7 29.0 0.00 0.00 0.00 83 999.7
20240303130147 7 115 12.9 19.3 0.00 0.00 0.00 83 999.7
20240303125647 7 111 9.7 19.3 0.00 0.00 0.00 82 999.8
20240303125147 7 104 11.3 20.9 0.00 0.00 0.00 82 999.9
20240303124148 7 119 12.9 25.7 0.00 0.00 0.00 82 1000.0
20240303123147 7 110 11.3 22.5 0.00 0.00 0.00 82 1000.1
20240303122147 7 113 11.3 22.5 0.00 0.00 0.00 82 1000.2
20240303121646 7 122 11.3 24.1 0.00 0.00 0.00 81 1000.3
20240303120647 7 125 11.3 25.7 0.00 0.00 0.00 80 1000.4
20240303120147 7 122 14.5 25.7 0.00 0.00 0.00 80 1000.5
20240303115648 7 108 11.3 19.3 0.00 0.00 0.00 80 1000.5
20240303115147 7 113 11.3 22.5 0.00 0.00 0.00 80 1000.6
20240303114646 7 107 12.9 24.1 0.00 0.00 0.00 80 1000.7
20240303114147 7 111 12.9 25.7 0.00 0.00 0.00 79 1000.8
20240303113647 7 116 14.5 24.1 0.00 0.00 0.00 79 1000.9
20240303113147 7 115 12.9 20.9 0.00 0.00 0.00 79 1001.0
20240303112647 8 101 11.3 22.5 0.00 0.00 0.00 79 1001.2
20240303112148 8 92 8.0 22.5 0.00 0.00 0.00 79 1001.2
20240303111147 8 111 11.3 19.3 0.00 0.00 0.00 78 1001.3
20240303110647 8 99 9.7 19.3 0.00 0.00 0.00 78 1001.3
20240303110147 8 109 8.0 19.3 0.00 0.00 0.00 78 1001.4
20240303105647 8 99 9.7 19.3 0.00 0.00 0.00 77 1001.5
20240303105147 8 109 11.3 19.3 0.00 0.00 0.00 77 1001.4
20240303104647 8 103 8.0 19.3 0.00 0.00 0.00 77 1001.4
20240303104147 8 102 9.7 16.1 0.00 0.00 0.00 77 1001.5
20240303103647 8 107 11.3 16.1 0.00 0.00 0.00 76 1001.5
20240303103147 8 98 9.7 20.9 0.00 0.00 0.00 76 1001.6
20240303102647 8 123 9.7 16.1 0.00 0.00 0.00 76 1001.7
20240303102147 8 117 11.3 20.9 0.00 0.00 0.00 76 1001.7
20240303101646 8 114 6.4 19.3 0.00 0.00 0.00 76 1001.8
20240303101147 8 98 9.7 16.1 0.00 0.00 0.00 76 1001.8
20240303100147 8 113 6.4 16.1 0.00 0.00 0.00 76 1002.0
20240303095647 8 109 6.4 11.3 0.00 0.00 0.00 76 1002.1
20240303095147 8 97 4.8 11.3 0.00 0.00 0.00 76 1002.1
20240303094647 8 103 3.2 9.7 0.00 0.00 0.00 75 1002.2
20240303093647 8 92 3.2 4.8 0.00 0.00 0.00 74 1002.5
20240303093147 8 89 3.2 4.8 0.00 0.00 0.00 74 1002.5
20240303092647 8 85 4.8 4.8 0.00 0.00 0.00 73 1002.5
20240303092148 8 107 4.8 12.9 0.00 0.00 0.00 73 1002.6
20240303090148 8 103 8.0 14.5 0.00 0.00 0.00 72 1002.9
20240303085647 8 106 8.0 14.5 0.00 0.00 0.00 72 1003.0
20240303085147 8 107 8.0 12.9 0.00 0.00 0.00 71 1003.0
20240303084647 9 114 4.8 12.9 0.00 0.00 0.00 70 1003.1
20240303084147 9 96 4.8 12.9 0.00 0.00 0.00 70 1003.2
20240303083647 9 110 3.2 12.9 0.00 0.00 0.00 69 1003.3
20240303083147 10 113 6.4 12.9 0.00 0.00 0.00 69 1003.3
20240303082147 10 107 3.2 9.7 0.00 0.00 0.00 68 1003.6
20240303081647 10 98 4.8 14.5 0.00 0.00 0.00 68 1003.7
20240303081147 10 111 8.0 12.9 0.00 0.00 0.00 68 1003.8
20240303080145 10 133 8.0 11.3 0.00 0.00 0.00 68 1004.0
20240303075148 10 128 4.8 12.9 0.00 0.00 0.00 67 1004.1
20240303074648 10 124 4.8 12.9 0.00 0.00 0.00 67 1004.1
20240303074148 10 114 4.8 12.9 0.00 0.00 0.00 67 1004.1
20240303073649 10 132 8.0 19.3 0.00 0.00 0.00 67 1004.2
20240303073149 10 126 9.7 19.3 0.00 0.00 0.00 66 1004.2
20240303072649 10 130 8.0 14.5 0.00 0.00 0.00 66 1004.3
20240303072149 10 127 4.8 11.3 0.00 0.00 0.00 66 1004.4
20240303071649 10 122 8.0 19.3 0.00 0.00 0.00 66 1004.5
20240303071149 10 135 8.0 20.9 0.00 0.00 0.00 66 1004.5
20240303070650 10 112 9.7 19.3 0.00 0.00 0.00 66 1004.5
20240303065649 10 129 8.0 19.3 0.00 0.00 0.00 65 1004.6
20240303065148 10 123 8.0 16.1 0.00 0.00 0.00 65 1004.6
20240303064649 10 134 9.7 25.7 0.00 0.00 0.00 65 1004.6
20240303064149 10 133 9.7 16.1 0.00 0.00 0.00 65 1004.7
20240303063649 11 127 8.0 19.3 0.00 0.00 0.00 65 1004.7
20240303063149 11 123 11.3 19.3 0.00 0.00 0.00 65 1004.8
20240303062648 11 138 8.0 12.9 0.00 0.00 0.00 65 1004.8
20240303062149 11 125 8.0 14.5 0.00 0.00 0.00 64 1004.8
20240303061652 11 140 8.0 19.3 0.00 0.00 0.00 64 1004.8
20240303061148 11 113 6.4 16.1 0.00 0.00 0.00 64 1004.8
20240303060649 11 126 8.0 14.5 0.00 0.00 0.00 64 1004.8
20240303060149 11 119 12.9 20.9 0.00 0.00 0.00 64 1004.8